![]() |
EMODnet Physics ERDDAP
Easier access to scientific data |
log in|
Brought to you by EMODnet Physics |
| Dataset Title: | NDBC - Collection of dew point temperature (DEWT) TimeSeries - IN SITU MultiPointTimeSeriesObservation
|
| Institution: | NDBC (Dataset ID: TS_DEWT_NDBC) |
| Information: | Summary
| License
| FGDC
| ISO 19115
| Metadata
| Background
| Subset
| Data Access Form
| Make a graph
|
| Name | Last modified | Size | Description | |
|---|---|---|---|---|
| Parent Directory | - | - | ||
| 41046_TS_DEWT_012008.nc | 26-Oct-2024 11:59 | 427353 | ||
| 41046_TS_DEWT_012009.nc | 26-Oct-2024 11:59 | 429231 | ||
| 41046_TS_DEWT_012010.nc | 26-Oct-2024 11:59 | 428866 | ||
| 41046_TS_DEWT_012011.nc | 26-Oct-2024 11:59 | 429245 | ||
| 41046_TS_DEWT_012012.nc | 26-Oct-2024 11:59 | 429897 | ||
| 41046_TS_DEWT_012013.nc | 26-Oct-2024 11:59 | 422286 | ||
| 41046_TS_DEWT_012014.nc | 26-Oct-2024 11:59 | 427461 | ||
| 41046_TS_DEWT_012015.nc | 26-Oct-2024 11:59 | 425490 | ||
| 41046_TS_DEWT_012016.nc | 26-Oct-2024 11:59 | 429824 | ||
| 41046_TS_DEWT_012017.nc | 26-Oct-2024 12:00 | 429914 | ||
| 41046_TS_DEWT_012018.nc | 26-Oct-2024 12:00 | 429913 | ||
| 41046_TS_DEWT_012019.nc | 26-Oct-2024 12:00 | 429914 | ||
| 41046_TS_DEWT_012020.nc | 26-Oct-2024 12:00 | 429909 | ||
| 41046_TS_DEWT_012021.nc | 26-Oct-2024 12:00 | 430193 | ||
| 41046_TS_DEWT_012022.nc | 26-Oct-2024 12:00 | 432566 | ||
| 41046_TS_DEWT_012023.nc | 26-Oct-2024 12:00 | 429807 | ||
| 41046_TS_DEWT_012024.nc | 26-Oct-2024 12:00 | 450096 | ||
| 41046_TS_DEWT_012026.nc | 02-Feb-2026 20:03 | 427750 | ||
| 41046_TS_DEWT_022009.nc | 26-Oct-2024 12:00 | 428822 | ||
| 41046_TS_DEWT_022010.nc | 26-Oct-2024 12:00 | 428873 | ||
| 41046_TS_DEWT_022011.nc | 26-Oct-2024 12:00 | 428863 | ||
| 41046_TS_DEWT_022012.nc | 26-Oct-2024 12:00 | 428683 | ||
| 41046_TS_DEWT_022013.nc | 26-Oct-2024 12:00 | 429324 | ||
| 41046_TS_DEWT_022014.nc | 26-Oct-2024 12:00 | 428095 | ||
| 41046_TS_DEWT_022015.nc | 26-Oct-2024 12:00 | 429847 | ||
| 41046_TS_DEWT_022016.nc | 26-Oct-2024 12:01 | 429912 | ||
| 41046_TS_DEWT_022017.nc | 26-Oct-2024 12:01 | 429513 | ||
| 41046_TS_DEWT_022018.nc | 26-Oct-2024 12:01 | 429912 | ||
| 41046_TS_DEWT_022019.nc | 26-Oct-2024 12:01 | 429911 | ||
| 41046_TS_DEWT_022020.nc | 26-Oct-2024 12:01 | 433846 | ||
| 41046_TS_DEWT_022021.nc | 26-Oct-2024 12:01 | 429915 | ||
| 41046_TS_DEWT_022022.nc | 26-Oct-2024 12:01 | 429720 | ||
| 41046_TS_DEWT_022023.nc | 26-Oct-2024 12:01 | 459430 | ||
| 41046_TS_DEWT_022024.nc | 16-Sep-2024 16:51 | 425675 | ||
| 41046_TS_DEWT_022026.nc | 01-Mar-2026 11:26 | 428338 | ||
| 41046_TS_DEWT_032009.nc | 26-Oct-2024 12:01 | 429069 | ||
| 41046_TS_DEWT_032010.nc | 26-Oct-2024 12:01 | 428750 | ||
| 41046_TS_DEWT_032011.nc | 26-Oct-2024 12:01 | 428478 | ||
| 41046_TS_DEWT_032012.nc | 26-Oct-2024 12:01 | 429038 | ||
| 41046_TS_DEWT_032013.nc | 26-Oct-2024 12:01 | 420548 | ||
| 41046_TS_DEWT_032014.nc | 26-Oct-2024 12:01 | 429545 | ||
| 41046_TS_DEWT_032015.nc | 26-Oct-2024 12:01 | 429119 | ||
| 41046_TS_DEWT_032016.nc | 26-Oct-2024 12:02 | 429569 | ||
| 41046_TS_DEWT_032017.nc | 26-Oct-2024 12:02 | 429566 | ||
| 41046_TS_DEWT_032018.nc | 26-Oct-2024 12:02 | 429552 | ||
| 41046_TS_DEWT_032019.nc | 26-Oct-2024 12:02 | 429569 | ||
| 41046_TS_DEWT_032020.nc | 26-Oct-2024 12:02 | 429570 | ||
| 41046_TS_DEWT_032021.nc | 26-Oct-2024 12:02 | 429569 | ||
| 41046_TS_DEWT_032022.nc | 26-Oct-2024 12:02 | 432274 | ||
| 41046_TS_DEWT_032023.nc | 26-Oct-2024 12:02 | 451615 | ||
| 41046_TS_DEWT_032026.nc | 21-Mar-2026 15:35 | 1712462 | ||
| 41046_TS_DEWT_042008.nc | 26-Oct-2024 12:02 | 428566 | ||
| 41046_TS_DEWT_042009.nc | 26-Oct-2024 12:02 | 429311 | ||
| 41046_TS_DEWT_042010.nc | 26-Oct-2024 12:02 | 429412 | ||
| 41046_TS_DEWT_042011.nc | 26-Oct-2024 12:02 | 422931 | ||
| 41046_TS_DEWT_042012.nc | 26-Oct-2024 12:02 | 429414 | ||
| 41046_TS_DEWT_042013.nc | 26-Oct-2024 12:02 | 428911 | ||
| 41046_TS_DEWT_042014.nc | 26-Oct-2024 12:02 | 421785 | ||
| 41046_TS_DEWT_042015.nc | 26-Oct-2024 12:03 | 427905 | ||
| 41046_TS_DEWT_042016.nc | 26-Oct-2024 12:03 | 429894 | ||
| 41046_TS_DEWT_042017.nc | 26-Oct-2024 12:03 | 429269 | ||
| 41046_TS_DEWT_042018.nc | 26-Oct-2024 12:03 | 421551 | ||
| 41046_TS_DEWT_042019.nc | 26-Oct-2024 12:03 | 429910 | ||
| 41046_TS_DEWT_042020.nc | 26-Oct-2024 12:03 | 429911 | ||
| 41046_TS_DEWT_042021.nc | 26-Oct-2024 12:03 | 429908 | ||
| 41046_TS_DEWT_042022.nc | 26-Oct-2024 12:03 | 429896 | ||
| 41046_TS_DEWT_042025.nc | 18-Jan-2026 13:13 | 429884 | ||
| 41046_TS_DEWT_052008.nc | 26-Oct-2024 12:03 | 456177 | ||
| 41046_TS_DEWT_052009.nc | 26-Oct-2024 12:03 | 450119 | ||
| 41046_TS_DEWT_052010.nc | 26-Oct-2024 12:04 | 419804 | ||
| 41046_TS_DEWT_052011.nc | 26-Oct-2024 12:04 | 4346345 | ||
| 41046_TS_DEWT_052012.nc | 26-Oct-2024 12:04 | 425365 | ||
| 41046_TS_DEWT_052013.nc | 26-Oct-2024 12:04 | 428890 | ||
| 41046_TS_DEWT_052014.nc | 26-Oct-2024 12:04 | 428253 | ||
| 41046_TS_DEWT_052015.nc | 26-Oct-2024 12:04 | 427686 | ||
| 41046_TS_DEWT_052016.nc | 26-Oct-2024 12:04 | 428921 | ||
| 41046_TS_DEWT_052017.nc | 26-Oct-2024 12:04 | 428188 | ||
| 41046_TS_DEWT_052018.nc | 26-Oct-2024 12:04 | 429319 | ||
| 41046_TS_DEWT_052019.nc | 26-Oct-2024 12:04 | 428566 | ||
| 41046_TS_DEWT_052020.nc | 26-Oct-2024 12:04 | 428952 | ||
| 41046_TS_DEWT_052021.nc | 26-Oct-2024 12:04 | 427788 | ||
| 41046_TS_DEWT_052022.nc | 26-Oct-2024 12:04 | 429553 | ||
| 41046_TS_DEWT_052023.nc | 26-Oct-2024 12:05 | 428828 | ||
| 41046_TS_DEWT_052025.nc | 18-Jan-2026 13:14 | 429568 | ||
| 41046_TS_DEWT_062008.nc | 26-Oct-2024 12:05 | 429318 | ||
| 41046_TS_DEWT_062009.nc | 26-Oct-2024 12:05 | 429466 | ||
| 41046_TS_DEWT_062010.nc | 26-Oct-2024 12:05 | 447989 | ||
| 41046_TS_DEWT_062011.nc | 26-Oct-2024 12:05 | 447792 | ||
| 41046_TS_DEWT_062012.nc | 26-Oct-2024 12:05 | 4309694 | ||
| 41046_TS_DEWT_062013.nc | 26-Oct-2024 12:05 | 4602990 | ||
| 41046_TS_DEWT_062014.nc | 26-Oct-2024 12:05 | 428466 | ||
| 41046_TS_DEWT_062015.nc | 26-Oct-2024 12:05 | 429571 | ||
| 41046_TS_DEWT_062016.nc | 26-Oct-2024 12:05 | 428597 | ||
| 41046_TS_DEWT_062017.nc | 26-Oct-2024 12:05 | 427692 | ||
| 41046_TS_DEWT_062018.nc | 26-Oct-2024 12:05 | 429554 | ||
| 41046_TS_DEWT_062019.nc | 26-Oct-2024 12:05 | 428850 | ||
| 41046_TS_DEWT_062020.nc | 26-Oct-2024 12:06 | 424650 | ||
| 41046_TS_DEWT_062021.nc | 26-Oct-2024 12:06 | 429009 | ||
| 41046_TS_DEWT_062022.nc | 26-Oct-2024 12:06 | 426413 | ||
| 41046_TS_DEWT_062023.nc | 26-Oct-2024 12:06 | 429775 | ||
| 41046_TS_DEWT_062025.nc | 18-Jan-2026 13:14 | 429914 | ||
| 41046_TS_DEWT_072008.nc | 26-Oct-2024 12:06 | 429910 | ||
| 41046_TS_DEWT_072009.nc | 26-Oct-2024 12:06 | 429534 | ||
| 41046_TS_DEWT_072010.nc | 26-Oct-2024 12:06 | 429913 | ||
| 41046_TS_DEWT_072011.nc | 26-Oct-2024 12:06 | 429879 | ||
| 41046_TS_DEWT_072012.nc | 26-Oct-2024 12:06 | 429891 | ||
| 41046_TS_DEWT_072013.nc | 26-Oct-2024 12:06 | 450365 | ||
| 41046_TS_DEWT_072014.nc | 26-Oct-2024 12:06 | 450107 | ||
| 41046_TS_DEWT_072015.nc | 26-Oct-2024 12:06 | 4083572 | ||
| 41046_TS_DEWT_072016.nc | 26-Oct-2024 12:06 | 4808703 | ||
| 41046_TS_DEWT_072017.nc | 26-Oct-2024 12:06 | 455040 | ||
| 41046_TS_DEWT_072018.nc | 26-Oct-2024 12:06 | 629459 | ||
| 41046_TS_DEWT_072019.nc | 26-Oct-2024 12:06 | 629324 | ||
| 41046_TS_DEWT_072020.nc | 26-Oct-2024 12:06 | 629360 | ||
| 41046_TS_DEWT_072021.nc | 26-Oct-2024 12:07 | 454191 | ||
| 41046_TS_DEWT_072022.nc | 26-Oct-2024 12:07 | 475381 | ||
| 41046_TS_DEWT_072023.nc | 26-Oct-2024 12:07 | 478696 | ||
| 41046_TS_DEWT_072025.nc | 18-Jan-2026 13:15 | 471132 | ||
| 41046_TS_DEWT_082008.nc | 26-Oct-2024 12:07 | 451169 | ||
| 41046_TS_DEWT_082009.nc | 26-Oct-2024 12:07 | 629351 | ||
| 41046_TS_DEWT_082010.nc | 26-Oct-2024 12:07 | 628463 | ||
| 41046_TS_DEWT_082011.nc | 26-Oct-2024 12:07 | 464162 | ||
| 41046_TS_DEWT_082012.nc | 26-Oct-2024 12:07 | 479653 | ||
| 41046_TS_DEWT_082013.nc | 26-Oct-2024 12:07 | 481352 | ||
| 41046_TS_DEWT_082014.nc | 26-Oct-2024 12:07 | 476201 | ||
| 41046_TS_DEWT_082015.nc | 26-Oct-2024 12:07 | 478009 | ||
| 41046_TS_DEWT_082016.nc | 26-Oct-2024 12:07 | 434411 | ||
| 41046_TS_DEWT_082017.nc | 26-Oct-2024 12:07 | 629450 | ||
| 41046_TS_DEWT_082018.nc | 26-Oct-2024 12:08 | 628125 | ||
| 41046_TS_DEWT_082019.nc | 26-Oct-2024 12:08 | 450288 | ||
| 41046_TS_DEWT_082020.nc | 26-Oct-2024 12:08 | 627753 | ||
| 41046_TS_DEWT_082021.nc | 26-Oct-2024 12:08 | 450172 | ||
| 41046_TS_DEWT_082022.nc | 26-Oct-2024 12:08 | 480950 | ||
| 41046_TS_DEWT_082023.nc | 26-Oct-2024 12:08 | 481948 | ||
| 41046_TS_DEWT_082025.nc | 18-Jan-2026 13:15 | 450135 | ||
| 41046_TS_DEWT_092007.nc | 26-Oct-2024 12:08 | 480630 | ||
| 41046_TS_DEWT_092008.nc | 26-Oct-2024 12:08 | 450519 | ||
| 41046_TS_DEWT_092009.nc | 26-Oct-2024 12:08 | 627921 | ||
| 41046_TS_DEWT_092010.nc | 26-Oct-2024 12:08 | 630452 | ||
| 41046_TS_DEWT_092011.nc | 26-Oct-2024 12:08 | 451026 | ||
| 41046_TS_DEWT_092012.nc | 26-Oct-2024 12:08 | 627820 | ||
| 41046_TS_DEWT_092013.nc | 26-Oct-2024 12:08 | 451321 | ||
| 41046_TS_DEWT_092014.nc | 26-Oct-2024 12:08 | 470561 | ||
| 41046_TS_DEWT_092015.nc | 26-Oct-2024 12:08 | 629862 | ||
| 41046_TS_DEWT_092016.nc | 26-Oct-2024 12:09 | 630183 | ||
| 41046_TS_DEWT_092017.nc | 26-Oct-2024 12:09 | 451261 | ||
| 41046_TS_DEWT_092018.nc | 26-Oct-2024 12:09 | 450820 | ||
| 41046_TS_DEWT_092019.nc | 26-Oct-2024 12:09 | 481004 | ||
| 41046_TS_DEWT_092020.nc | 26-Oct-2024 12:09 | 481020 | ||
| 41046_TS_DEWT_092021.nc | 26-Oct-2024 12:09 | 449417 | ||
| 41046_TS_DEWT_092022.nc | 26-Oct-2024 12:09 | 450249 | ||
| 41046_TS_DEWT_092023.nc | 26-Oct-2024 12:09 | 629246 | ||
| 41046_TS_DEWT_092025.nc | 18-Jan-2026 13:16 | 628084 | ||
| 41046_TS_DEWT_102007.nc | 26-Oct-2024 12:09 | 629588 | ||
| 41046_TS_DEWT_102008.nc | 26-Oct-2024 12:09 | 450293 | ||
| 41046_TS_DEWT_102009.nc | 26-Oct-2024 12:09 | 460396 | ||
| 41046_TS_DEWT_102010.nc | 26-Oct-2024 12:09 | 482846 | ||
| 41046_TS_DEWT_102011.nc | 26-Oct-2024 12:09 | 480202 | ||
| 41046_TS_DEWT_102012.nc | 26-Oct-2024 12:09 | 479376 | ||
| 41046_TS_DEWT_102013.nc | 26-Oct-2024 12:09 | 449746 | ||
| 41046_TS_DEWT_102014.nc | 26-Oct-2024 12:09 | 456622 | ||
| 41046_TS_DEWT_102015.nc | 26-Oct-2024 12:09 | 629258 | ||
| 41046_TS_DEWT_102016.nc | 26-Oct-2024 12:09 | 628558 | ||
| 41046_TS_DEWT_102017.nc | 26-Oct-2024 12:09 | 629528 | ||
| 41046_TS_DEWT_102018.nc | 26-Oct-2024 12:10 | 447437 | ||
| 41046_TS_DEWT_102019.nc | 26-Oct-2024 12:10 | 630825 | ||
| 41046_TS_DEWT_102020.nc | 26-Oct-2024 12:10 | 630742 | ||
| 41046_TS_DEWT_102021.nc | 26-Oct-2024 12:10 | 630204 | ||
| 41046_TS_DEWT_102022.nc | 26-Oct-2024 12:10 | 427917 | ||
| 41046_TS_DEWT_102023.nc | 26-Oct-2024 12:10 | 630461 | ||
| 41046_TS_DEWT_102025.nc | 18-Jan-2026 13:17 | 629912 | ||
| 41046_TS_DEWT_112007.nc | 26-Oct-2024 12:10 | 451091 | ||
| 41046_TS_DEWT_112008.nc | 26-Oct-2024 12:10 | 450574 | ||
| 41046_TS_DEWT_112009.nc | 26-Oct-2024 12:10 | 443694 | ||
| 41046_TS_DEWT_112010.nc | 26-Oct-2024 12:10 | 474945 | ||
| 41046_TS_DEWT_112011.nc | 26-Oct-2024 12:10 | 478887 | ||
| 41046_TS_DEWT_112012.nc | 26-Oct-2024 12:10 | 475166 | ||
| 41046_TS_DEWT_112013.nc | 26-Oct-2024 12:10 | 461402 | ||
| 41046_TS_DEWT_112014.nc | 26-Oct-2024 12:10 | 477143 | ||
| 41046_TS_DEWT_112015.nc | 26-Oct-2024 12:11 | 447007 | ||
| 41046_TS_DEWT_112016.nc | 26-Oct-2024 12:11 | 447581 | ||
| 41046_TS_DEWT_112017.nc | 26-Oct-2024 12:11 | 630795 | ||
| 41046_TS_DEWT_112018.nc | 26-Oct-2024 12:11 | 462171 | ||
| 41046_TS_DEWT_112019.nc | 26-Oct-2024 12:11 | 629922 | ||
| 41046_TS_DEWT_112020.nc | 26-Oct-2024 12:11 | 588183 | ||
| 41046_TS_DEWT_112021.nc | 26-Oct-2024 12:11 | 450055 | ||
| 41046_TS_DEWT_112022.nc | 26-Oct-2024 12:11 | 450064 | ||
| 41046_TS_DEWT_112023.nc | 26-Oct-2024 12:11 | 451478 | ||
| 41046_TS_DEWT_112025.nc | 18-Jan-2026 13:17 | 481836 | ||
| 41046_TS_DEWT_122007.nc | 26-Oct-2024 12:11 | 481307 | ||
| 41046_TS_DEWT_122008.nc | 26-Oct-2024 12:11 | 480410 | ||
| 41046_TS_DEWT_122009.nc | 26-Oct-2024 12:11 | 474152 | ||
| 41046_TS_DEWT_122010.nc | 26-Oct-2024 12:11 | 449322 | ||
| 41046_TS_DEWT_122011.nc | 26-Oct-2024 12:11 | 450813 | ||
| 41046_TS_DEWT_122012.nc | 26-Oct-2024 12:11 | 448635 | ||
| 41046_TS_DEWT_122013.nc | 26-Oct-2024 12:11 | 629813 | ||
| 41046_TS_DEWT_122014.nc | 26-Oct-2024 12:11 | 630157 | ||
| 41046_TS_DEWT_122015.nc | 26-Oct-2024 12:12 | 629886 | ||
| 41046_TS_DEWT_122016.nc | 26-Oct-2024 12:12 | 589623 | ||
| 41046_TS_DEWT_122017.nc | 26-Oct-2024 12:12 | 450523 | ||
| 41046_TS_DEWT_122018.nc | 26-Oct-2024 12:12 | 451746 | ||
| 41046_TS_DEWT_122019.nc | 26-Oct-2024 12:12 | 451744 | ||
| 41046_TS_DEWT_122020.nc | 26-Oct-2024 12:12 | 481783 | ||
| 41046_TS_DEWT_122021.nc | 26-Oct-2024 12:12 | 481305 | ||
| 41046_TS_DEWT_122022.nc | 26-Oct-2024 12:12 | 478135 | ||
| 41046_TS_DEWT_122023.nc | 26-Oct-2024 12:12 | 450666 | ||
| 41046_TS_DEWT_122025.nc | 18-Jan-2026 13:18 | 444715 | ||